Las Vegas, NM

09:18 MDT le 27 juillet 2016 (GMT -0600)
Las Vegas Municipal | | Change Station

Alt. 6877 ft 35.65 °N, 105.14 °W | Updated 25 minutes ago

Clear
Ciel dégagé
71 ° F
Paraît 71 ° F
N
4
Vent Variable Vent de NE

Aujourd'hui
Haut(e) -- | Bas -- ° F
--% Risque de précip.
Hier
Haut(e) -- | Bas -- ° F
Precip. -- pouce
Pression 30.02 pouce
Visibilité 10.0 Miles terrestres
Nuages Ciel dégagé
Point de rosée 52 ° F
Humidité 51%
Précipitations 0.00 pouce
Profondeur de la couche neigeuse Non disponible.
6:05 AM 8:08 PM
Dernier quartier, 42% visible
METAR KLVS 271453Z AUTO 05003KT 10SM CLR 22/11 A3034 RMK AO2 SLP166 T02170111 51008
Pression 30.02 pouce
Visibilité 10.0 Miles terrestres
Nuages Ciel dégagé
Point de rosée 52 ° F
Humidité 51%
Précipitations 0.00 pouce
Profondeur de la couche neigeuse Non disponible.
6:05 AM 8:08 PM
Dernier quartier, 42% visible
METAR KLVS 271453Z AUTO 05003KT 10SM CLR 22/11 A3034 RMK AO2 SLP166 T02170111 51008

10-Day Weather Forecast

Almanac

Astronomie

Jul. 27, 2016 Lever Coucher
Temps réel
Crépuscule civil
Crépuscule nautique
Crépuscule astronomique
Lune
Durée de lumière visible
Longueur du jour
Tomorrow will be .
, % of the Moon is Illuminated

Extrêmes aujourd'hui

State Highs State Lows

Community

WunderPhotos

Upload Photos

1,927,858 Photos téléchargées !

WunderBlog® & News

Nearby

Qualité de l'air

  Qualité de l'air Indice de la qualité de l'air Polluant
Not available.

Épaisseur de neige

Station Depth Altitude

Activité sismique

Ville Distance Mag. Time & Date
Minimum magnitude displayed is 2.5.

Températures des eaux côtières

Lieu Température

Stations

Stations météo à proximité

Emplacement de la station Température Refroidissement éolien Point de rosée Humidité Vent Precip. Alt. Mise à jour Type
                   

Watches & Warnings

There are currently no watches in effect.